Time;durP1;ratioP1;P1;durP2;ratioP2;P2;SDS_P1;SDS_P2;PMS_P1;PMS_P2;Temp;Humidity;BMP_temperature;BMP_pressure;BME280_temperature;BME280_humidity;BME280_pressure;Samples;Min_cycle;Max_cycle;Signal;HPM_P1;HPM_P2
2023/11/01 00:01:33;;;;;;;0.20;0.20;;;;;;;16.59;100.00;100146.38;4974690;28;20231;-87
2023/11/01 00:03:58;;;;;;;0.20;0.20;;;;;;;16.54;100.00;100138.34;4991874;28;20397;-87
2023/11/01 00:06:24;;;;;;;0.20;0.20;;;;;;;16.62;100.00;100134.34;4973341;28;20057;-86
2023/11/01 00:08:49;;;;;;;0.20;0.20;;;;;;;16.70;100.00;100144.31;4990999;28;20038;-87
2023/11/01 00:11:14;;;;;;;0.20;0.20;;;;;;;16.69;98.94;100151.16;4991596;28;20030;-87
2023/11/01 00:13:40;;;;;;;0.20;0.20;;;;;;;16.67;99.48;100125.50;4974589;28;20072;-87
2023/11/01 00:16:06;;;;;;;0.20;0.20;;;;;;;16.65;99.23;100122.28;4973357;28;20030;-87
2023/11/01 00:18:31;;;;;;;0.20;0.20;;;;;;;16.77;99.86;100130.28;4991773;28;20125;-87
2023/11/01 00:20:56;;;;;;;0.20;0.20;;;;;;;16.71;99.72;100133.91;4974002;28;20030;-85
2023/11/01 00:23:22;;;;;;;0.20;0.20;;;;;;;16.69;98.68;100128.69;4991071;28;20037;-87
2023/11/01 00:25:47;;;;;;;0.20;0.20;;;;;;;16.77;98.98;100158.38;4972769;28;20124;-86
2023/11/01 00:28:13;;;;;;;0.20;0.20;;;;;;;16.57;99.84;100134.75;4973255;28;20498;-87
2023/11/01 00:30:38;;;;;;;0.20;0.20;;;;;;;16.70;100.00;100158.38;4987181;28;20544;-87
2023/11/01 00:33:03;;;;;;;0.20;0.20;;;;;;;16.63;100.00;100160.41;4972462;28;20033;-87
2023/11/01 00:35:29;;;;;;;0.20;0.20;;;;;;;16.30;100.00;100123.16;4973777;28;20022;-87
2023/11/01 00:37:54;;;;;;;0.20;0.20;;;;;;;16.51;100.00;100141.94;4969789;28;20042;-87
2023/11/01 00:40:20;;;;;;;0.20;0.20;;;;;;;16.50;100.00;100138.34;4962977;28;20537;-87
2023/11/01 00:42:45;;;;;;;0.20;0.20;;;;;;;16.68;100.00;100172.03;4991455;28;20022;-87
2023/11/01 00:45:11;;;;;;;0.20;0.20;;;;;;;16.49;100.00;100138.75;4973573;28;20358;-87
2023/11/01 00:47:36;;;;;;;0.20;0.20;;;;;;;16.58;100.00;100147.56;4973796;28;20023;-87
2023/11/01 00:50:05;;;;;;;0.20;0.20;;;;;;;16.46;100.00;100136.78;4969189;28;20033;-87
2023/11/01 00:52:31;;;;;;;0.20;0.20;;;;;;;16.55;100.00;100145.56;4990493;28;20026;-87
2023/11/01 00:54:56;;;;;;;0.20;0.20;;;;;;;16.62;100.00;100145.56;4971920;28;20022;-87
2023/11/01 00:57:22;;;;;;;0.20;0.20;;;;;;;16.65;100.00;100139.13;4993096;28;20076;-87
2023/11/01 00:59:47;;;;;;;0.20;0.20;;;;;;;16.44;100.00;100122.31;4992760;28;20169;-87
2023/11/01 01:02:12;;;;;;;0.20;0.20;;;;;;;16.57;100.00;100142.38;4975729;28;20482;-87
2023/11/01 01:04:38;;;;;;;0.20;0.20;;;;;;;16.30;100.00;100099.88;4993445;28;20030;-87
2023/11/01 01:07:03;;;;;;;0.20;0.20;;;;;;;16.55;100.00;100131.53;4975649;28;20018;-86
2023/11/01 01:09:29;;;;;;;0.20;0.20;;;;;;;16.50;100.00;100134.75;4974793;28;20027;-87
2023/11/01 01:11:54;;;;;;;0.20;0.20;;;;;;;16.62;100.00;100155.97;4976239;28;20581;-87
2023/11/01 01:14:20;;;;;;;0.20;0.20;;;;;;;16.40;100.00;100118.72;4976713;28;20532;-87
2023/11/01 01:16:46;;;;;;;0.20;0.20;;;;;;;16.39;100.00;100128.34;4978149;28;20022;-87
2023/11/01 01:19:12;;;;;;;0.20;0.20;;;;;;;16.37;100.00;100122.34;4977679;28;20121;-87
2023/11/01 01:21:37;;;;;;;0.20;0.20;;;;;;;16.29;100.00;100098.28;4976799;28;20105;-87
2023/11/01 01:24:03;;;;;;;0.20;0.20;;;;;;;16.25;100.00;100115.16;4993943;28;20030;-87
2023/11/01 01:26:29;;;;;;;0.20;0.20;;;;;;;16.53;100.00;100127.53;4977259;28;20093;-87
2023/11/01 01:28:54;;;;;;;0.20;0.20;;;;;;;16.32;100.00;100117.13;4994406;28;20124;-87
2023/11/01 01:31:20;;;;;;;0.20;0.20;;;;;;;16.21;100.00;100109.53;4976528;28;20022;-87
2023/11/01 01:33:45;;;;;;;0.20;0.20;;;;;;;16.10;100.00;100110.75;4968729;28;20561;-87
2023/11/01 01:36:11;;;;;;;0.20;0.20;;;;;;;15.84;100.00;100123.19;4976852;28;20033;-87
2023/11/01 01:38:37;;;;;;;0.20;0.20;;;;;;;15.97;100.00;100152.44;4976844;28;20490;-88
2023/11/01 01:41:03;;;;;;;0.20;0.20;;;;;;;15.62;100.00;100100.69;4994830;28;20030;-87
2023/11/01 01:43:29;;;;;;;0.30;0.30;;;;;;;15.74;100.00;100135.19;4976375;28;20387;-87
2023/11/01 01:45:57;;;;;;;0.20;0.20;;;;;;;15.82;100.00;100139.59;4994602;28;20037;-88
2023/11/01 01:48:23;;;;;;;0.20;0.20;;;;;;;15.88;100.00;100118.38;4977061;28;20038;-87
2023/11/01 01:50:48;;;;;;;0.20;0.20;;;;;;;16.01;100.00;100115.97;4977996;28;20023;-87
2023/11/01 01:53:14;;;;;;;0.20;0.20;;;;;;;16.06;100.00;100102.31;4976113;28;20031;-87
2023/11/01 01:55:40;;;;;;;0.20;0.20;;;;;;;16.07;100.00;100126.38;4976961;28;20023;-87
2023/11/01 01:58:05;;;;;;;0.20;0.20;;;;;;;16.39;100.00;100148.00;4975795;28;20420;-87
2023/11/01 02:00:32;;;;;;;0.20;0.20;;;;;;;16.40;100.00;100141.97;4993256;28;20030;-87
2023/11/01 02:03:00;;;;;;;0.20;0.20;;;;;;;16.30;100.00;100119.53;4975606;28;20015;-88
2023/11/01 02:05:26;;;;;;;0.20;0.20;;;;;;;16.41;100.00;100134.38;4976423;28;20026;-87
2023/11/01 02:07:51;;;;;;;0.20;0.20;;;;;;;16.27;100.00;100117.53;4975510;28;20394;-88
2023/11/01 02:10:17;;;;;;;0.20;0.20;;;;;;;16.26;100.00;100115.94;4976514;28;20028;-87
2023/11/01 02:12:43;;;;;;;0.20;0.20;;;;;;;16.29;100.00;100112.31;4976493;28;20023;-87
2023/11/01 02:15:09;;;;;;;0.20;0.20;;;;;;;16.31;100.00;100104.31;4976419;28;20014;-87
2023/11/01 02:17:34;;;;;;;0.20;0.20;;;;;;;16.48;100.00;100120.31;4976129;28;20058;-88
2023/11/01 02:20:02;;;;;;;0.20;0.20;;;;;;;16.14;100.00;100087.09;4976496;28;20497;-87
2023/11/01 02:22:27;;;;;;;0.20;0.20;;;;;;;16.13;100.00;100074.25;4975545;28;20069;-87
2023/11/01 02:24:53;;;;;;;0.30;0.30;;;;;;;16.36;100.00;100109.50;4975610;28;20074;-88
2023/11/01 02:27:19;;;;;;;0.20;0.20;;;;;;;16.42;100.00;100125.53;4992834;28;20108;-88
2023/11/01 02:29:44;;;;;;;0.20;0.20;;;;;;;16.38;100.00;100124.75;4975697;28;20038;-88
2023/11/01 02:32:10;;;;;;;0.20;0.20;;;;;;;16.60;100.00;100147.97;4993499;28;20037;-88
2023/11/01 02:34:36;;;;;;;0.20;0.20;;;;;;;16.31;100.00;100095.88;4975457;28;20048;-87
2023/11/01 02:37:02;;;;;;;0.20;0.20;;;;;;;16.34;100.00;100114.72;4975305;28;20034;-88
2023/11/01 02:39:28;;;;;;;0.20;0.20;;;;;;;16.06;100.00;100073.47;4976349;28;20038;-88
2023/11/01 02:41:53;;;;;;;0.20;0.20;;;;;;;16.23;100.00;100117.53;4974604;28;20067;-88
2023/11/01 02:44:19;;;;;;;0.20;0.20;;;;;;;16.17;100.00;100114.34;4975992;28;20097;-88
2023/11/01 02:46:44;;;;;;;0.20;0.20;;;;;;;16.13;100.00;100107.91;4975902;28;20081;-87
2023/11/01 02:49:10;;;;;;;0.20;0.20;;;;;;;16.58;100.00;100136.34;4974994;28;20036;-87
2023/11/01 02:51:35;;;;;;;0.20;0.20;;;;;;;16.44;100.00;100111.09;4975990;28;20023;-87
2023/11/01 02:54:01;;;;;;;0.20;0.20;;;;;;;16.28;100.00;100107.91;4975174;28;20028;-87
2023/11/01 02:56:26;;;;;;;0.20;0.20;;;;;;;16.02;100.00;100084.69;4975726;28;20034;-88
2023/11/01 02:58:52;;;;;;;0.20;0.20;;;;;;;16.12;100.00;100100.72;4971329;28;20034;-88
2023/11/01 03:01:19;;;;;;;0.20;0.20;;;;;;;15.93;100.00;100087.91;4967228;28;20045;-88
2023/11/01 03:03:45;;;;;;;0.20;0.20;;;;;;;16.24;100.00;100128.38;4974850;28;20058;-88
2023/11/01 03:06:10;;;;;;;0.20;0.20;;;;;;;16.04;100.00;100087.91;4975157;28;20056;-87
2023/11/01 03:08:36;;;;;;;0.20;0.20;;;;;;;15.90;100.00;100065.47;4974883;28;20026;-87
2023/11/01 03:11:02;;;;;;;0.20;0.20;;;;;;;16.35;100.00;100107.88;4975012;28;20076;-88
2023/11/01 03:13:27;;;;;;;0.20;0.20;;;;;;;16.06;100.00;100063.03;4974390;28;20045;-88
2023/11/01 03:15:53;;;;;;;0.20;0.20;;;;;;;16.29;100.00;100089.84;4975530;28;20066;-88
2023/11/01 03:18:18;;;;;;;0.20;0.20;;;;;;;16.08;100.00;100066.22;4974578;28;20092;-87
2023/11/01 03:20:43;;;;;;;0.20;0.20;;;;;;;16.27;100.00;100097.91;4974535;28;20022;-88
2023/11/01 03:23:09;;;;;;;0.20;0.20;;;;;;;16.52;100.00;100112.69;4974803;28;20026;-87
2023/11/01 03:25:34;;;;;;;0.20;0.20;;;;;;;16.23;100.00;100073.41;4974338;28;20042;-87
2023/11/01 03:27:59;;;;;;;0.20;0.20;;;;;;;16.26;100.00;100085.06;4992625;28;20049;-87
2023/11/01 03:30:25;;;;;;;0.20;0.20;;;;;;;16.19;100.00;100055.81;4971101;28;20498;-87
2023/11/01 03:32:50;;;;;;;0.20;0.20;;;;;;;16.46;100.00;100089.03;4955541;28;20023;-88
2023/11/01 03:35:16;;;;;;;0.20;0.20;;;;;;;16.46;100.00;100091.84;4955834;28;20022;-87
2023/11/01 03:37:41;;;;;;;0.20;0.20;;;;;;;16.49;100.00;100113.50;4972888;28;20042;-87
2023/11/01 03:40:07;;;;;;;0.20;0.20;;;;;;;16.33;100.00;100079.44;4972566;28;20022;-87
2023/11/01 03:42:32;;;;;;;0.20;0.20;;;;;;;16.36;100.00;100087.84;4970977;28;20035;-87
2023/11/01 03:44:58;;;;;;;0.20;0.20;;;;;;;16.34;100.00;100081.03;4973319;28;20018;-88
2023/11/01 03:47:24;;;;;;;0.20;0.20;;;;;;;16.06;100.00;100077.06;4974593;28;20421;-88
2023/11/01 03:49:49;;;;;;;0.20;0.20;;;;;;;16.07;100.00;100087.09;4974993;28;20085;-88
2023/11/01 03:52:15;;;;;;;0.20;0.20;;;;;;;16.03;100.00;100083.47;4957956;28;20027;-88
2023/11/01 03:54:40;;;;;;;0.20;0.20;;;;;;;15.98;100.00;100064.25;4955812;28;20018;-88
2023/11/01 03:57:06;;;;;;;0.20;0.20;;;;;;;16.29;100.00;100103.91;4971864;28;20328;-88
2023/11/01 03:59:32;;;;;;;0.20;0.20;;;;;;;16.28;100.00;100079.84;4975731;28;20019;-88
2023/11/01 04:01:58;;;;;;;0.20;0.20;;;;;;;16.10;100.00;100083.47;4973733;28;20034;-87
2023/11/01 04:04:24;;;;;;;0.20;0.20;;;;;;;16.30;100.00;100102.69;4974863;28;20359;-87
2023/11/01 04:06:49;;;;;;;0.20;0.20;;;;;;;16.14;100.00;100075.03;4973539;28;20541;-87
2023/11/01 04:09:15;;;;;;;0.20;0.20;;;;;;;16.03;100.00;100047.00;4974000;28;20030;-88
2023/11/01 04:11:41;;;;;;;0.20;0.20;;;;;;;16.23;100.00;100079.03;4973748;28;20041;-88
2023/11/01 04:14:07;;;;;;;0.20;0.20;;;;;;;16.26;100.00;100085.06;4974896;28;20034;-88
2023/11/01 04:16:32;;;;;;;0.20;0.20;;;;;;;16.31;100.00;100093.06;4963808;28;20030;-88
2023/11/01 04:18:58;;;;;;;0.20;0.20;;;;;;;16.22;100.00;100066.22;4957142;28;20069;-89
2023/11/01 04:21:24;;;;;;;0.20;0.20;;;;;;;16.31;100.00;100102.31;4973352;28;20019;-88
2023/11/01 04:23:51;;;;;;;0.20;0.20;;;;;;;16.07;100.00;100041.38;4959602;28;20395;-87
2023/11/01 04:26:17;;;;;;;0.20;0.20;;;;;;;16.12;100.00;100061.41;4965355;28;20043;-87
2023/11/01 04:28:43;;;;;;;0.20;0.20;;;;;;;16.39;100.00;100094.66;4955005;28;20035;-87
2023/11/01 04:31:08;;;;;;;0.20;0.20;;;;;;;16.12;100.00;100052.19;4955123;28;20022;-87
2023/11/01 04:33:34;;;;;;;0.20;0.20;;;;;;;15.99;100.00;100051.81;4955711;28;20038;-88
2023/11/01 04:35:59;;;;;;;0.20;0.20;;;;;;;16.07;100.00;100070.25;4957758;28;20113;-88
2023/11/01 04:38:24;;;;;;;0.20;0.20;;;;;;;16.19;100.00;100086.69;4980723;28;20058;-87
2023/11/01 04:40:50;;;;;;;0.20;0.20;;;;;;;16.05;100.00;100055.81;4973831;28;20497;-88
2023/11/01 04:43:17;;;;;;;0.20;0.20;;;;;;;15.86;100.00;100042.22;4974198;28;20033;-88
2023/11/01 04:45:45;;;;;;;0.20;0.20;;;;;;;15.99;100.00;100032.19;4974115;28;20059;-87
2023/11/01 04:48:10;;;;;;;0.20;0.20;;;;;;;16.12;100.00;100064.22;4978848;28;20030;-87
2023/11/01 04:50:36;;;;;;;0.20;0.20;;;;;;;15.99;100.00;100057.44;4974399;28;20096;-87
2023/11/01 04:53:01;;;;;;;0.20;0.20;;;;;;;16.09;100.00;100090.31;4974668;28;20113;-88
2023/11/01 04:55:26;;;;;;;0.20;0.20;;;;;;;15.97;100.00;100071.06;4974160;28;20129;-88
2023/11/01 04:57:52;;;;;;;0.20;0.20;;;;;;;16.14;100.00;100078.66;4974294;28;20113;-87
2023/11/01 05:00:18;;;;;;;0.20;0.20;;;;;;;16.14;100.00;100075.88;4991433;28;20128;-87
2023/11/01 05:02:48;;;;;;;0.20;0.20;;;;;;;15.91;100.00;100069.84;4972822;28;20019;-87
2023/11/01 05:05:13;;;;;;;0.20;0.20;;;;;;;16.07;100.00;100100.31;4972814;28;20546;-88
2023/11/01 05:07:40;;;;;;;0.20;0.20;;;;;;;15.84;100.00;100072.69;4976778;28;20120;-87
2023/11/01 05:10:05;;;;;;;0.20;0.20;;;;;;;16.13;100.00;100084.66;4973422;28;20018;-88
2023/11/01 05:12:31;;;;;;;0.20;0.20;;;;;;;16.19;100.00;100106.34;4988151;28;20033;-87
2023/11/01 05:14:57;;;;;;;0.20;0.20;;;;;;;16.14;100.00;100095.50;4992914;28;20026;-87
2023/11/01 05:17:22;;;;;;;0.20;0.20;;;;;;;15.89;100.00;100061.06;4992966;28;20025;-87
2023/11/01 05:19:48;;;;;;;0.22;0.22;;;;;;;15.84;100.00;100055.84;4993294;28;20026;-87
2023/11/01 05:22:13;;;;;;;0.20;0.20;;;;;;;16.15;100.00;100116.75;4990590;28;20029;-88
2023/11/01 05:24:39;;;;;;;0.20;0.20;;;;;;;16.22;100.00;100105.50;4973465;28;20026;-87
2023/11/01 05:27:07;;;;;;;0.20;0.20;;;;;;;15.90;100.00;100076.69;4973461;28;20407;-87
2023/11/01 05:29:33;;;;;;;0.20;0.20;;;;;;;16.11;100.00;100115.94;4991445;28;20498;-88
2023/11/01 05:31:58;;;;;;;0.20;0.20;;;;;;;15.95;100.00;100093.13;4989220;28;20509;-88
2023/11/01 05:34:25;;;;;;;0.20;0.20;;;;;;;15.86;100.00;100085.09;4980257;28;20019;-88
2023/11/01 05:36:51;;;;;;;0.20;0.20;;;;;;;16.01;100.00;100094.31;4980355;28;20014;-88
2023/11/01 05:39:24;;;;;;;0.20;0.20;;;;;;;15.74;100.00;100079.88;4982524;28;20049;-89
2023/11/01 05:41:52;;;;;;;;;;;;;;;16.12;100.00;100111.94;4983823;28;21011;-90
2023/11/01 05:44:19;;;;;;;0.20;0.20;;;;;;;15.80;100.00;100067.06;4984994;28;20373;-89
2023/11/01 05:46:46;;;;;;;0.20;0.20;;;;;;;16.11;100.00;100071.03;4980876;28;20029;-88
2023/11/01 05:49:11;;;;;;;0.20;0.20;;;;;;;16.37;100.00;100127.97;4980622;28;20117;-87
2023/11/01 05:51:37;;;;;;;0.20;0.20;;;;;;;16.11;100.00;100096.31;4985121;28;20594;-86
2023/11/01 05:54:05;;;;;;;0.20;0.20;;;;;;;16.09;100.00;100079.06;4982482;28;20026;-89
2023/11/01 05:56:31;;;;;;;0.20;0.20;;;;;;;16.41;100.00;100123.16;4983603;28;20072;-89
2023/11/01 05:58:57;;;;;;;0.20;0.20;;;;;;;16.38;100.00;100135.16;4987273;28;20565;-89
2023/11/01 06:01:26;;;;;;;0.20;0.20;;;;;;;16.39;100.00;100142.38;4984965;28;20109;-86
2023/11/01 06:03:57;;;;;;;0.20;0.20;;;;;;;16.28;100.00;100124.75;4998609;28;20034;-88
2023/11/01 06:06:26;;;;;;;0.20;0.20;;;;;;;16.40;100.00;100149.59;4983027;28;20401;-88
2023/11/01 06:08:52;;;;;;;0.20;0.20;;;;;;;16.44;100.00;100150.41;5002445;28;20061;-87
2023/11/01 06:11:18;;;;;;;0.20;0.20;;;;;;;16.53;100.00;100150.00;5000010;28;20038;-85
2023/11/01 06:13:43;;;;;;;0.20;0.20;;;;;;;16.60;100.00;100152.78;4994159;28;20026;-87
2023/11/01 06:16:10;;;;;;;0.20;0.20;;;;;;;16.56;100.00;100147.16;5001952;28;20130;-87
2023/11/01 06:18:35;;;;;;;0.20;0.20;;;;;;;16.81;100.00;100166.00;4997688;28;20478;-87
2023/11/01 06:21:01;;;;;;;0.20;0.20;;;;;;;16.85;100.00;100164.00;4985418;28;20038;-88
2023/11/01 06:23:26;;;;;;;0.20;0.20;;;;;;;16.80;100.00;100153.16;4986829;28;20026;-86
2023/11/01 06:25:52;;;;;;;0.20;0.20;;;;;;;16.74;100.00;100153.59;5004380;28;20129;-89
2023/11/01 06:28:17;;;;;;;0.20;0.20;;;;;;;16.81;100.00;100149.16;5004157;28;20379;-88
2023/11/01 06:30:43;;;;;;;0.20;0.20;;;;;;;16.92;100.00;100141.47;4984241;28;20500;-89
2023/11/01 06:33:08;;;;;;;0.20;0.20;;;;;;;17.16;100.00;100167.91;4979978;28;20030;-89
2023/11/01 06:35:34;;;;;;;0.20;0.20;;;;;;;17.35;100.00;100173.03;4962508;28;20121;-87
2023/11/01 06:37:59;;;;;;;0.20;0.20;;;;;;;17.33;98.80;100172.63;4987369;28;20042;-85
2023/11/01 06:40:25;;;;;;;0.20;0.20;;;;;;;17.61;98.97;100177.31;4991743;28;20048;-84
2023/11/01 06:42:50;;;;;;;0.20;0.20;;;;;;;17.76;97.19;100166.78;4993537;28;20057;-85
2023/11/01 06:45:16;;;;;;;0.20;0.20;;;;;;;17.95;95.99;100157.00;4993192;28;20069;-84
2023/11/01 06:47:41;;;;;;;0.20;0.20;;;;;;;18.28;94.61;100176.06;4992901;28;20533;-84
2023/11/01 06:50:07;;;;;;;0.20;0.20;;;;;;;18.33;93.13;100172.78;4993055;28;20034;-84
2023/11/01 06:52:32;;;;;;;0.20;0.20;;;;;;;18.29;93.08;100172.00;4975593;28;20448;-84
2023/11/01 06:54:58;;;;;;;0.20;0.20;;;;;;;18.52;91.24;100156.50;4975050;28;20413;-84
2023/11/01 06:57:23;;;;;;;0.20;0.20;;;;;;;18.72;90.74;100173.66;4993077;28;20117;-84
2023/11/01 06:59:48;;;;;;;0.20;0.20;;;;;;;18.70;90.01;100173.28;4975383;28;20093;-87
2023/11/01 07:02:14;;;;;;;0.20;0.20;;;;;;;18.90;89.06;100199.63;4992776;28;20382;-87
2023/11/01 07:04:39;;;;;;;0.20;0.20;;;;;;;18.84;89.00;100187.19;4975561;28;20560;-84
2023/11/01 07:07:04;;;;;;;0.20;0.20;;;;;;;18.59;86.40;100184.63;4975336;28;20057;-86
2023/11/01 07:09:31;;;;;;;0.20;0.20;;;;;;;18.77;84.98;100171.19;4992905;28;20130;-84
2023/11/01 07:11:57;;;;;;;0.20;0.20;;;;;;;18.99;80.49;100188.66;4992812;28;20026;-84
2023/11/01 07:14:22;;;;;;;0.20;0.20;;;;;;;18.79;80.32;100199.72;4992706;28;20034;-87
2023/11/01 07:16:48;;;;;;;0.20;0.20;;;;;;;19.44;78.02;100191.34;4971619;28;20133;-86
2023/11/01 07:19:13;;;;;;;0.20;0.20;;;;;;;19.46;77.40;100173.97;4988601;28;20397;-86
2023/11/01 07:21:41;;;;;;;0.20;0.20;;;;;;;19.95;75.87;100188.63;4984050;28;20146;-86
2023/11/01 07:24:08;;;;;;;0.20;0.20;;;;;;;20.25;72.45;100202.66;4975335;28;20060;-86
2023/11/01 07:26:34;;;;;;;0.20;0.20;;;;;;;20.01;75.87;100186.91;4977873;28;20129;-86
2023/11/01 07:28:59;;;;;;;0.20;0.20;;;;;;;20.33;73.10;100204.13;4990572;28;20169;-86
2023/11/01 07:31:25;;;;;;;0.20;0.20;;;;;;;19.91;74.14;100163.25;4973696;28;20475;-86
2023/11/01 07:33:51;;;;;;;0.20;0.20;;;;;;;20.22;74.20;100226.13;4991597;28;20041;-86
2023/11/01 07:36:17;;;;;;;0.20;0.20;;;;;;;20.32;71.42;100219.50;4973902;28;20030;-85
2023/11/01 07:38:43;;;;;;;0.20;0.20;;;;;;;20.09;75.19;100230.78;4974337;28;20034;-85
2023/11/01 07:41:08;;;;;;;0.20;0.20;;;;;;;19.79;73.64;100232.41;4991928;28;20041;-86
2023/11/01 07:43:34;;;;;;;0.20;0.20;;;;;;;19.74;74.61;100221.59;4992218;28;20462;-85
2023/11/01 07:46:00;;;;;;;0.20;0.20;;;;;;;20.34;71.76;100228.31;4975021;28;20030;-86
2023/11/01 07:48:25;;;;;;;0.20;0.20;;;;;;;20.30;69.93;100199.34;4991919;28;20034;-86
2023/11/01 07:50:50;;;;;;;0.20;0.20;;;;;;;20.34;68.88;100210.56;4974443;28;20418;-85
2023/11/01 07:53:16;;;;;;;0.20;0.20;;;;;;;21.24;68.70;100233.19;4974818;28;20488;-86
2023/11/01 07:55:41;;;;;;;0.20;0.20;;;;;;;22.05;61.06;100224.22;4992073;28;20030;-85
2023/11/01 07:58:07;;;;;;;0.20;0.20;;;;;;;21.59;62.60;100236.56;4991955;28;20038;-85
2023/11/01 08:00:32;;;;;;;0.20;0.20;;;;;;;21.34;64.08;100226.56;4991917;28;20072;-85
2023/11/01 08:02:57;;;;;;;0.20;0.20;;;;;;;20.88;64.98;100219.75;4974317;28;20064;-86
2023/11/01 08:05:23;;;;;;;0.20;0.20;;;;;;;20.80;66.81;100238.06;4975452;28;20076;-86
2023/11/01 08:07:49;;;;;;;0.20;0.20;;;;;;;20.69;66.05;100214.84;4974477;28;20483;-87
2023/11/01 08:10:15;;;;;;;0.20;0.20;;;;;;;20.73;68.33;100238.22;4991594;28;20027;-86
2023/11/01 08:12:40;;;;;;;0.20;0.20;;;;;;;21.04;68.04;100229.56;4974206;28;20406;-86
2023/11/01 08:15:06;;;;;;;0.20;0.20;;;;;;;21.48;65.81;100241.66;4974219;28;20053;-86
2023/11/01 08:17:32;;;;;;;0.20;0.20;;;;;;;21.34;64.49;100237.09;4974303;28;20049;-86
2023/11/01 08:19:58;;;;;;;0.20;0.20;;;;;;;21.75;63.51;100239.44;4991702;28;20033;-86
2023/11/01 08:22:24;;;;;;;0.20;0.20;;;;;;;21.41;64.89;100234.91;4991634;28;20018;-85
2023/11/01 08:24:50;;;;;;;0.20;0.20;;;;;;;21.15;65.32;100236.63;4974302;28;20034;-86
2023/11/01 08:27:16;;;;;;;0.20;0.20;;;;;;;20.81;66.83;100211.41;4974160;28;20149;-86
2023/11/01 08:29:42;;;;;;;0.20;0.20;;;;;;;20.71;67.75;100220.06;4974057;28;20034;-86
2023/11/01 08:32:11;;;;;;;0.20;0.20;;;;;;;20.21;71.29;100229.38;4991543;28;20049;-87
2023/11/01 08:34:37;;;;;;;0.20;0.20;;;;;;;19.87;72.92;100214.16;4991765;28;20031;-86
2023/11/01 08:37:04;;;;;;;0.20;0.20;;;;;;;20.25;71.33;100216.78;4974007;28;20037;-86
2023/11/01 08:39:29;;;;;;;0.20;0.20;;;;;;;20.32;71.67;100216.66;4973835;28;20391;-86
2023/11/01 08:41:55;;;;;;;0.20;0.20;;;;;;;20.12;72.64;100215.78;4989543;28;20022;-86
2023/11/01 08:44:20;;;;;;;0.20;0.20;;;;;;;20.34;72.63;100228.31;4971198;28;20023;-86
2023/11/01 08:46:46;;;;;;;0.20;0.20;;;;;;;20.22;72.92;100226.13;4981222;28;20033;-86
2023/11/01 08:49:11;;;;;;;0.20;0.20;;;;;;;20.35;73.09;100235.59;4973602;28;20482;-86
2023/11/01 08:51:39;;;;;;;0.20;0.20;;;;;;;20.55;71.19;100240.53;4973238;28;20034;-85
2023/11/01 08:54:05;;;;;;;0.20;0.20;;;;;;;20.79;70.75;100230.84;4989436;28;20041;-86
2023/11/01 08:56:31;;;;;;;0.20;0.20;;;;;;;20.57;69.56;100229.63;4991496;28;20039;-86
2023/11/01 08:58:56;;;;;;;0.20;0.20;;;;;;;20.95;66.65;100212.38;4990732;28;20157;-86
2023/11/01 09:01:21;;;;;;;0.20;0.20;;;;;;;20.71;68.45;100226.53;4969296;28;20139;-86
2023/11/01 09:03:47;;;;;;;0.20;0.20;;;;;;;20.91;65.25;100235.84;4963317;28;20034;-86
2023/11/01 09:06:12;;;;;;;0.20;0.20;;;;;;;20.85;65.63;100243.25;4990780;28;20606;-86
2023/11/01 09:08:37;;;;;;;0.20;0.20;;;;;;;20.35;67.58;100217.84;4974000;28;20034;-87
2023/11/01 09:11:03;;;;;;;0.20;0.20;;;;;;;20.50;67.61;100241.03;4991277;28;20434;-86
2023/11/01 09:13:28;;;;;;;0.20;0.20;;;;;;;20.33;66.26;100214.63;4991634;28;20042;-86
2023/11/01 09:15:54;;;;;;;0.20;0.20;;;;;;;20.43;67.72;100210.84;4974691;28;20023;-86
2023/11/01 09:18:20;;;;;;;0.20;0.20;;;;;;;20.52;66.68;100216.78;5000602;28;20121;-86
2023/11/01 09:20:46;;;;;;;0.20;0.20;;;;;;;20.55;67.43;100217.94;4982531;28;20022;-86
2023/11/01 09:23:11;;;;;;;0.20;0.20;;;;;;;20.36;66.55;100231.53;4999440;28;20018;-86
2023/11/01 09:25:38;;;;;;;0.20;0.20;;;;;;;20.24;67.30;100223.69;4977240;28;20054;-86
2023/11/01 09:28:04;;;;;;;0.20;0.20;;;;;;;20.38;67.75;100237.56;4976942;28;20030;-87
2023/11/01 09:30:29;;;;;;;0.20;0.20;;;;;;;19.78;68.02;100202.56;4994825;28;20034;-88
2023/11/01 09:32:54;;;;;;;0.20;0.20;;;;;;;19.97;68.40;100205.91;4976834;28;20060;-87
2023/11/01 09:35:20;;;;;;;0.20;0.20;;;;;;;20.20;69.86;100219.31;4976923;28;20026;-86
2023/11/01 09:37:45;;;;;;;0.20;0.20;;;;;;;20.12;69.83;100218.59;4976582;28;20113;-87
2023/11/01 09:40:12;;;;;;;0.20;0.20;;;;;;;20.25;70.66;100224.47;4994261;28;20038;-87
2023/11/01 09:42:39;;;;;;;0.20;0.20;;;;;;;20.40;68.31;100218.16;4977008;28;20056;-86
2023/11/01 09:45:09;;;;;;;0.20;0.20;;;;;;;20.42;68.33;100217.72;4994405;28;20022;-86
2023/11/01 09:47:37;;;;;;;0.20;0.20;;;;;;;20.49;65.91;100222.47;4977132;28;20037;-86
2023/11/01 09:50:05;;;;;;;0.20;0.20;;;;;;;20.52;63.41;100225.25;4976839;28;20030;-86
2023/11/01 09:52:30;;;;;;;0.20;0.20;;;;;;;20.50;64.69;100224.88;4976687;28;20565;-86
2023/11/01 09:54:56;;;;;;;0.20;0.20;;;;;;;20.54;64.67;100222.00;4976472;28;20264;-85
2023/11/01 09:57:24;;;;;;;0.20;0.20;;;;;;;20.69;65.63;100220.50;4976685;28;20053;-86
2023/11/01 09:59:51;;;;;;;0.20;0.20;;;;;;;20.87;64.69;100226.63;4993978;28;20274;-85
2023/11/01 10:02:17;;;;;;;0.20;0.20;;;;;;;21.05;63.75;100197.22;4976287;28;20113;-85
2023/11/01 10:04:43;;;;;;;0.20;0.20;;;;;;;20.85;63.77;100209.31;4976061;28;20105;-86
2023/11/01 10:07:10;;;;;;;0.20;0.20;;;;;;;21.00;62.72;100195.69;4993834;28;20026;-86
2023/11/01 10:09:36;;;;;;;0.20;0.20;;;;;;;21.08;61.79;100213.31;4993734;28;20556;-86
2023/11/01 10:12:03;;;;;;;0.20;0.20;;;;;;;20.71;63.94;100206.72;4976243;28;20101;-85
2023/11/01 10:14:30;;;;;;;0.20;0.20;;;;;;;20.99;63.80;100199.75;4989115;28;20489;-85
2023/11/01 10:16:57;;;;;;;0.20;0.20;;;;;;;21.18;63.96;100206.66;4995895;28;20161;-86
2023/11/01 10:19:24;;;;;;;0.20;0.20;;;;;;;21.08;64.70;100207.66;4995565;28;20029;-86
2023/11/01 10:21:53;;;;;;;0.20;0.20;;;;;;;20.91;65.47;100165.16;4995655;28;20371;-85
2023/11/01 10:24:25;;;;;;;0.20;0.20;;;;;;;21.26;65.90;100193.16;4995564;28;20056;-85
2023/11/01 10:26:52;;;;;;;0.20;0.20;;;;;;;21.51;65.36;100196.28;4995206;28;20116;-85
2023/11/01 10:29:18;;;;;;;0.20;0.20;;;;;;;21.36;65.68;100172.34;4994735;28;20053;-85
2023/11/01 10:31:54;;;;;;;0.10;0.10;;;;;;;21.65;64.99;100183.84;5013312;28;20034;-85
2023/11/01 10:34:19;;;;;;;0.20;0.20;;;;;;;20.85;66.98;100168.94;4995543;28;20036;-86
2023/11/01 10:36:52;;;;;;;0.20;0.20;;;;;;;21.08;67.18;100174.50;4995381;28;20026;-86
2023/11/01 10:39:19;;;;;;;0.10;0.10;;;;;;;20.99;67.39;100187.66;5012977;28;20108;-86
2023/11/01 10:41:49;;;;;;;0.20;0.20;;;;;;;20.65;68.29;100135.75;4974029;28;20121;-86
2023/11/01 10:44:15;;;;;;;0.20;0.20;;;;;;;21.05;67.26;100168.94;4974222;28;20169;-86
2023/11/01 10:46:41;;;;;;;0.20;0.20;;;;;;;20.99;66.82;100176.34;4973790;28;20113;-86
2023/11/01 10:49:14;;;;;;;0.20;0.20;;;;;;;21.31;65.32;100156.69;4973531;28;20490;-86
2023/11/01 10:51:40;;;;;;;0.20;0.20;;;;;;;21.14;65.52;100147.31;4956059;28;20557;-87
2023/11/01 10:54:07;;;;;;;0.20;0.20;;;;;;;21.65;64.95;100166.88;4954104;28;20654;-86
2023/11/01 10:56:32;;;;;;;0.20;0.20;;;;;;;21.63;63.98;100149.53;4956664;28;20037;-87
2023/11/01 10:59:05;;;;;;;0.20;0.20;;;;;;;21.22;63.33;100102.69;4989538;28;20034;-86
2023/11/01 11:01:36;;;;;;;;;;;;;;;21.58;63.69;100158.53;4972985;28;20034;-86
2023/11/01 11:04:02;;;;;;;0.20;0.20;;;;;;;21.43;64.46;100147.53;4969468;28;19909;-86
2023/11/01 11:06:35;;;;;;;0.20;0.20;;;;;;;21.14;65.88;100146.50;4971912;28;20043;-87
2023/11/01 11:09:21;;;;;;;0.20;0.20;;;;;;;21.26;66.04;100143.03;4989796;28;20052;-85
2023/11/01 11:12:16;;;;;;;0.20;0.20;;;;;;;20.77;66.64;100120.19;4952766;28;20602;-86
2023/11/01 11:14:44;;;;;;;0.20;0.20;;;;;;;20.89;66.07;100139.34;4953433;28;20094;-86
2023/11/01 11:17:15;;;;;;;0.20;0.20;;;;;;;20.91;66.44;100142.53;4952632;28;20023;-86